KPHT/PHT METAR and TAF weather

Enter ICAO airport designator
Station Type Date Time Source
KPHT METAR 2021/05/14 14:15 UTC NOAA

KPHT 141415Z AUTO 04007KT 10SM CLR 18/03 A3033 RMK A01


Station Type Date Time Source
KPHT Decoded METAR 2021/05/14 14:15 UTC NOAA

Station name not available
May 14, 2021 - 10:15 AM EDT / 2021.05.14 1415 UTC
Wind: from the NE (040 degrees) at 8 MPH (7 KT):0
Visibility: 10 mile(s):0
Sky conditions: clear
Temperature: 64 F (18 C)
Dew Point: 37 F (3 C)
Relative Humidity: 36%
Pressure (altimeter): 30.33 in. Hg (1027 hPa)
ob: KPHT 141415Z AUTO 04007KT 10SM CLR 18/03 A3033 RMK A01
cycle: 14

Station Type Date Time Source
KPHT TAF UTC NOAA

Error!

Example: see airport list